Terminal Aerodrome Forecast
Issued by NWS

Home | Current Version | Previous Version | Text Only | Print | Product List | Glossary On
Versions: 1 2 3 4 5 6 7 8 9 10 11 12 13 14 15
000
FTUS46 KEKA 282341
TAFUKI
TAF
KUKI 282341Z 2900/2924 24010G18KT P6SM BKN150
     FM290200 33005KT P6SM SCT070 BKN150
     FM291000 16006KT 6SM -SHRA SCT015 OVC050
     FM291300 33007KT P6SM SCT025 BKN040=

USA.gov is the U.S. government's official web portal to all federal, state and local government web resources and services.